Brest Airport

Airport
ICAO code: 
UMBB
IATA Code: 
BQT
Summary
ICAO Region: 
EUR
Territory: 
Location: 
Shebrin, Brest Region
Serving: 
Brest
Elevation: 
468 ft
Coordinates: 
Aerial View: 
52° 6' 29.988" N, 23° 53' 53.016" E
Metar
Observation
UMBB 180400Z 31008G11MPS 6000 NSC M00/M05 Q1018 NOSIG
Station
Brest
Date/Time
2022-01-18 04:00:00
Wind direction
310°
Lowest cloud amount
nil significant cloud
Temperature
-0°C
Dew point
-5°C
Humidity
68%
QNH
1018 hPa
Weather condition
n/a

Brest Airport is an airport serving Brest, a city in Belarus.

Climatology

Humid continental climate (Köppen climate classification Dfb)

Runways

Designator Length Width Surface Rops
11/29 2620 42 ASP No/No
Airport map: 
Aerial View: 

SKYbrary Partners:

Safety knowledge contributed by: